Flight Track Log - Related Links

Times and Time Zones

All times are in EDT time to prevent confusion due to time zone crossing. See the SKW6195 flight status page for this flight to view local times or setup timezone preferences in your user account.

Time Position Orientation Groundspeed Altitude Reporting Facility
EDT Latitude Longitude Course Direction KTS MPH feet Rate Location/Type
Mon 01:46:44 PM 39.9500 -104.6833 346° North 205 236 8,300  Level Denver TRACON
Mon 01:47:44 PM 40.0167 -104.6667 11° North 263 303 9,900 2,150 Climbing Denver TRACON
Mon 01:48:44 PM 40.1000 -104.6667 360° North 249 287 12,600 2,000 Climbing Denver TRACON
Mon 01:49:00 PM 40.2087 -105.0112 348° North  Level Estimated
Mon 01:49:44 PM 40.1667 -104.6833 349° North 266 306 13,900  Level Denver TRACON
Mon 01:50:00 PM 40.2953 -105.0963 346° North  Level Estimated
Mon 01:50:44 PM 40.2333 -104.7000 349° North 265 305 14,400  Level Denver TRACON
Mon 01:51:00 PM 40.4022 -105.0740 North  Level FlightAware Approximate
Mon 01:51:15 PM 40.2986 -104.7222 345° North 310 357 16,100  Level Denver Center
Mon 01:52:00 PM 40.4880 -105.1606 346° North  Level Estimated
Mon 01:52:17 PM 40.3864 -104.7467 348° North 322 371 17,400  Level Denver Center
Mon 01:53:19 PM 40.4797 -104.7703 349° North 339 390 18,700 1,210 Climbing Denver Center
Mon 01:54:21 PM 40.5811 -104.7978 348° North 347 399 19,900 1,065 Climbing Denver Center
Mon 01:55:23 PM 40.6803 -104.8222 349° North 354 407 20,900 919 Climbing Denver Center
Mon 01:56:25 PM 40.7767 -104.8472 349° North 352 405 21,800 823 Climbing Denver Center
Mon 01:57:27 PM 40.8731 -104.8897 342° North 361 415 22,600 774 Climbing Denver Center
Mon 01:58:29 PM 40.9700 -104.9389 339° North 372 428 23,400 726 Climbing Denver Center
Mon 01:59:31 PM 41.0847 -104.9964 339° North 381 438 24,100 581 Climbing Denver Center
Mon 02:00:33 PM 41.1825 -105.0439 340° North 389 448 24,600 435 Climbing Denver Center
Mon 02:01:35 PM 41.2994 -105.1019 340° North 399 459 25,000 432 Climbing Denver Center
Mon 02:02:38 PM 41.4011 -105.1536 339° North 407 468 25,500 528 Climbing Denver Center
Mon 02:03:40 PM 41.5214 -105.2144 339° North 413 475 26,100 532 Climbing Denver Center
Mon 02:04:42 PM 41.6086 -105.3014 323° Northwest 428 493 26,600 484 Climbing Denver Center
Mon 02:05:44 PM 41.6939 -105.4356 310° West 425 489 27,100 484 Climbing Denver Center
Mon 02:06:46 PM 41.7689 -105.5506 311° West 426 490 27,600 532 Climbing Denver Center
Mon 02:07:48 PM 41.8561 -105.6836 311° West 426 490 28,200 581 Climbing Denver Center
Mon 02:08:50 PM 41.9286 -105.7986 310° West 424 488 28,800 581 Climbing Denver Center
Mon 02:09:52 PM 42.0031 -105.9139 311° West 426 490 29,400 581 Climbing Denver Center
Mon 02:10:54 PM 42.0875 -106.0481 310° West 421 484 30,000 532 Climbing Denver Center
Mon 02:11:56 PM 42.1600 -106.1639 310° West 422 486 30,500 484 Climbing Denver Center
Mon 02:12:58 PM 42.2467 -106.2997 311° West 426 490 31,000 480 Climbing Denver Center
Mon 02:14:01 PM 42.3186 -106.4158 310° West 423 487 31,500 480 Climbing Denver Center
Mon 02:15:03 PM 42.4053 -106.5522 311° West 426 490 32,000 242 Climbing Denver Center
Mon 02:16:05 PM 42.4767 -106.6694 310° West 422 486 32,000  Level Denver Center
Mon 02:17:07 PM 42.5619 -106.8069 310° West 426 490 32,000  Level Denver Center
Mon 02:18:09 PM 42.6331 -106.9211 310° West 416 479 32,000  Level Denver Center
Mon 02:19:11 PM 42.7150 -107.0531 310° West 409 471 32,000  Level Denver Center
Mon 02:20:13 PM 42.7897 -107.1753 310° West 403 464 32,000  Level Denver Center
Mon 02:21:15 PM 42.8531 -107.2800 310° West 396 456 32,000  Level Denver Center
Mon 02:22:05 PM 42.9186 -107.3897 309° West 391 450 32,000  Level Salt Lake Center
Mon 02:23:07 PM 42.9836 -107.4975 310° West 393 452 32,000  Level Salt Lake Center
Mon 02:24:09 PM 43.0522 -107.6111 310° West 390 449 32,000  Level Salt Lake Center
Mon 02:25:11 PM 43.1217 -107.7269 309° West 393 452 32,000  Level Salt Lake Center
Mon 02:26:13 PM 43.1903 -107.8422 309° West 392 451 32,000  Level Salt Lake Center
Mon 02:27:15 PM 43.2736 -107.9828 309° West 395 455 32,000  Level Salt Lake Center
Mon 02:28:17 PM 43.3422 -108.0983 309° West 392 451 32,000  Level Salt Lake Center
Mon 02:29:19 PM 43.4111 -108.2136 309° West 391 450 32,000  Level Salt Lake Center
Mon 02:30:21 PM 43.4831 -108.3267 311° West 392 451 32,000  Level Salt Lake Center
Mon 02:31:23 PM 43.5650 -108.4211 320° Northwest 386 444 32,000  Level Salt Lake Center
Mon 02:32:25 PM 43.6467 -108.5178 319° Northwest 386 444 32,000  Level Salt Lake Center
Mon 02:33:27 PM 43.7439 -108.6319 320° Northwest 383 441 32,000  Level Salt Lake Center
Mon 02:34:29 PM 43.8239 -108.7253 320° Northwest 379 436 32,000 -48 Level Salt Lake Center
Mon 02:35:31 PM 43.9042 -108.8211 319° Northwest 381 438 31,900  Descending Salt Lake Center
Mon 02:36:34 PM 43.9833 -108.9144 320° Northwest 374 430 32,000 48 Climbing Salt Lake Center
Mon 02:37:36 PM 44.0622 -109.0089 319° Northwest 373 429 32,000 48 Level Salt Lake Center
Mon 02:38:38 PM 44.1419 -109.1039 319° Northwest 377 434 32,100  Climbing Salt Lake Center
Mon 02:39:40 PM 44.2331 -109.2147 319° Northwest 364 419 32,000 -48 Descending Salt Lake Center
Mon 02:40:42 PM 44.3117 -109.3097 319° Northwest 372 428 32,000  Level Salt Lake Center
Mon 02:41:44 PM 44.3900 -109.4025 320° Northwest 369 425 32,000  Level Salt Lake Center
Mon 02:42:46 PM 44.4719 -109.5019 319° Northwest 368 423 32,000  Level Salt Lake Center
Mon 02:43:48 PM 44.5456 -109.5911 319° Northwest 367 422 32,000  Level Salt Lake Center
Mon 02:44:50 PM 44.6186 -109.6839 318° Northwest 363 418 32,000 -435 Level Salt Lake Center
Mon 02:45:52 PM 44.6950 -109.7764 319° Northwest 362 417 31,100 -2,129 Descending Salt Lake Center
Mon 02:46:54 PM 44.7831 -109.8864 318° Northwest 355 409 27,600 -3,048 Descending Salt Lake Center
Mon 02:47:56 PM 44.8547 -109.9736 319° Northwest 356 410 24,800 -3,000 Descending Salt Lake Center
Mon 02:48:58 PM 44.9372 -110.0761 319° Northwest 354 407 21,400 -2,323 Descending Salt Lake Center
Mon 02:50:00 PM 45.0050 -110.1611 318° Northwest 343 395 20,000 -677 Descending Salt Lake Center
Mon 02:51:02 PM 45.0822 -110.2564 319° Northwest 331 381 20,000  Level Salt Lake Center
Mon 02:52:04 PM 45.1428 -110.3336 318° Northwest 337 388 20,000 -387 Level Salt Lake Center
Mon 02:53:06 PM 45.2278 -110.4392 319° Northwest 338 389 19,200 -1,317 Descending Salt Lake Center
Mon 02:54:07 PM 45.2933 -110.5233 318° Northwest 317 365 17,300 -2,195 Descending Salt Lake Center
Mon 02:55:09 PM 45.3600 -110.6056 319° Northwest 300 345 14,700 -1,597 Descending Salt Lake Center
Mon 02:56:11 PM 45.4192 -110.6844 317° Northwest 287 330 14,000 -823 Descending Salt Lake Center
Mon 02:57:13 PM 45.4739 -110.7531 319° Northwest 260 299 13,000 -532 Descending Salt Lake Center
Mon 02:58:15 PM 45.5281 -110.8225 318° Northwest 255 293 12,900 -871 Descending Salt Lake Center
Mon 02:59:17 PM 45.5808 -110.8897 318° Northwest 252 290 11,200 -1,403 Descending Salt Lake Center
Mon 03:00:19 PM 45.6297 -110.9469 321° Northwest 227 261 10,000 -1,790 Descending Salt Lake Center
Mon 03:01:21 PM 45.6767 -111.0114 316° Northwest 215 247 7,500 -1,935 Descending Salt Lake Center
Mon 03:02:23 PM 45.7164 -111.0667 316° Northwest 196 226 6,000 -1,113 Descending Salt Lake Center
Mon 03:03:25 PM 45.7456 -111.1075 316° Northwest 150 173 5,200 -726 Descending Salt Lake Center
Mon 03:04:27 PM 45.7728 -111.1458 316° Northwest 145 167 4,500 -677 Descending Salt Lake Center

Login

Don't have an account? Register now (free) for customized features, flight alerts, and more!